地図

経路データ

SID SEASON NUMBER BASIN SUBBASIN NAME ISO_TIME NATURE LAT LON WMO_WIND WMO_PRES WMO_AGENCY TRACK_TYPE DIST2LAND LANDFALL IFLAG USA_AGENCY USA_ATCF_ID USA_LAT USA_LON USA_RECORD USA_STATUS USA_WIND USA_PRES USA_SSHS USA_R34_NE USA_R34_SE USA_R34_SW USA_R34_NW USA_R50_NE USA_R50_SE USA_R50_SW USA_R50_NW USA_R64_NE USA_R64_SE USA_R64_SW USA_R64_NW USA_POCI USA_ROCI USA_RMW USA_EYE TOKYO_LAT TOKYO_LON TOKYO_GRADE TOKYO_WIND TOKYO_PRES TOKYO_R50_DIR TOKYO_R50_LONG TOKYO_R50_SHORT TOKYO_R30_DIR TOKYO_R30_LONG TOKYO_R30_SHORT TOKYO_LAND CMA_LAT CMA_LON CMA_CAT CMA_WIND CMA_PRES HKO_LAT HKO_LON HKO_CAT HKO_WIND HKO_PRES NEWDELHI_LAT NEWDELHI_LON NEWDELHI_GRADE NEWDELHI_WIND NEWDELHI_PRES NEWDELHI_CI NEWDELHI_DP NEWDELHI_POCI REUNION_LAT REUNION_LON REUNION_TYPE REUNION_WIND REUNION_PRES REUNION_TNUM REUNION_CI REUNION_RMW REUNION_R34_NE REUNION_R34_SE REUNION_R34_SW REUNION_R34_NW REUNION_R50_NE REUNION_R50_SE REUNION_R50_SW REUNION_R50_NW REUNION_R64_NE REUNION_R64_SE REUNION_R64_SW REUNION_R64_NW BOM_LAT BOM_LON BOM_TYPE BOM_WIND BOM_PRES BOM_TNUM BOM_CI BOM_RMW BOM_R34_NE BOM_R34_SE BOM_R34_SW BOM_R34_NW BOM_R50_NE BOM_R50_SE BOM_R50_SW BOM_R50_NW BOM_R64_NE BOM_R64_SE BOM_R64_SW BOM_R64_NW BOM_ROCI BOM_POCI BOM_EYE BOM_POS_METHOD BOM_PRES_METHOD NADI_LAT NADI_LON NADI_CAT NADI_WIND NADI_PRES WELLINGTON_LAT WELLINGTON_LON WELLINGTON_WIND WELLINGTON_PRES DS824_LAT DS824_LON DS824_STAGE DS824_WIND DS824_PRES TD9636_LAT TD9636_LON TD9636_STAGE TD9636_WIND TD9636_PRES TD9635_LAT TD9635_LON TD9635_WIND TD9635_PRES TD9635_ROCI NEUMANN_LAT NEUMANN_LON NEUMANN_CLASS NEUMANN_WIND NEUMANN_PRES MLC_LAT MLC_LON MLC_CLASS MLC_WIND MLC_PRES USA_GUST BOM_GUST BOM_GUST_PER REUNION_GUST REUNION_GUST_PER USA_SEAHGT USA_SEARAD_NE USA_SEARAD_SE USA_SEARAD_SW USA_SEARAD_NW STORM_SPEED STORM_DIR
1920192N15127 1920 22 WP MM NOT_NAMED 1920-07-10 10:00:00 NR 14.7000 127.400 main 335 325 __________O___ -1 14.7000 127.400 7 12 329
1920192N15127 1920 22 WP MM NOT_NAMED 1920-07-10 12:00:00 NR 15.0410 127.182 main 325 317 __________P___ -1 15.0410 127.182 7 12 328
1920192N15127 1920 22 WP MM NOT_NAMED 1920-07-10 15:00:00 NR 15.5306 126.868 main 323 319 __________P___ -1 15.5306 126.868 7 11 328
1920192N15127 1920 22 WP MM NOT_NAMED 1920-07-10 18:00:00 NR 15.9647 126.587 main 333 325 __________P___ -1 15.9647 126.587 7 9 328
1920192N15127 1920 22 WP MM NOT_NAMED 1920-07-10 21:00:00 NR 16.3102 126.360 main 342 335 __________P___ -1 16.3102 126.360 7 8 328
1920192N15127 1920 22 WP MM NOT_NAMED 1920-07-10 22:00:00 NR 16.4000 126.300 main 343 343 __________O___ -1 16.4000 126.300 3 5 327
1920192N15127 1920 22 WP MM NOT_NAMED 1920-07-11 00:00:00 NR 16.5381 126.206 main 346 346 __________P___ -1 16.5381 126.206 3 4 326
1920192N15127 1920 22 WP MM NOT_NAMED 1920-07-11 03:00:00 NR 16.6633 126.117 main 358 358 __________P___ -1 16.6633 126.117 3 2 325
1920192N15127 1920 22 WP MM NOT_NAMED 1920-07-11 06:00:00 NR 16.7291 126.064 main 358 352 __________P___ -1 16.7291 126.064 3 2 319
1920192N15127 1920 22 WP MM NOT_NAMED 1920-07-11 09:00:00 NR 16.7792 126.018 main 362 362 __________P___ -1 16.7792 126.018 3 1 323
1920192N15127 1920 22 WP MM NOT_NAMED 1920-07-11 10:00:00 NR 16.8000 126.000 main 362 361 __________O___ -1 16.8000 126.000 4 3 320
1920192N15127 1920 22 WP MM NOT_NAMED 1920-07-11 12:00:00 NR 16.8803 125.936 main 361 350 __________P___ -1 16.8803 125.936 4 3 323
1920192N15127 1920 22 WP MM NOT_NAMED 1920-07-11 15:00:00 NR 17.0070 125.835 main 350 340 __________P___ -1 17.0070 125.835 4 3 322
1920192N15127 1920 22 WP MM NOT_NAMED 1920-07-11 18:00:00 NR 17.1358 125.731 main 340 330 __________P___ -1 17.1358 125.731 4 3 323
1920192N15127 1920 22 WP MM NOT_NAMED 1920-07-11 21:00:00 NR 17.2605 125.631 main 331 331 __________P___ -1 17.2605 125.631 4 3 323
1920192N15127 1920 22 WP MM NOT_NAMED 1920-07-11 22:00:00 NR 17.3000 125.600 main 331 321 __________O___ -1 17.3000 125.600 4 3 324
1920192N15127 1920 22 WP MM NOT_NAMED 1920-07-12 00:00:00 NR 17.3671 125.549 main 321 321 __________P___ -1 17.3671 125.549 4 2 325
1920192N15127 1920 22 WP MM NOT_NAMED 1920-07-12 03:00:00 NR 17.4613 125.480 main 323 313 __________P___ -1 17.4613 125.480 4 2 325
1920192N15127 1920 22 WP MM NOT_NAMED 1920-07-12 06:00:00 NR 17.5562 125.410 main 315 304 __________P___ -1 17.5562 125.410 4 2 324
1920192N15127 1920 22 WP MM NOT_NAMED 1920-07-12 09:00:00 NR 17.6612 125.330 main 307 307 __________P___ -1 17.6612 125.330 4 3 324
1920192N15127 1920 22 WP MM NOT_NAMED 1920-07-12 10:00:00 NR 17.7000 125.300 main 307 300 __________O___ -1 17.7000 125.300 4 3 324
1920192N15127 1920 22 WP MM NOT_NAMED 1920-07-12 12:00:00 NR 17.7938 125.226 main 300 293 __________P___ -1 17.7938 125.226 4 4 323
1920192N15127 1920 22 WP MM NOT_NAMED 1920-07-12 15:00:00 NR 17.9473 125.101 main 293 286 __________P___ -1 17.9473 125.101 4 4 322
1920192N15127 1920 22 WP MM NOT_NAMED 1920-07-12 18:00:00 NR 18.1050 124.970 main 286 263 __________P___ -1 18.1050 124.970 4 4 321
1920192N15127 1920 22 WP MM NOT_NAMED 1920-07-12 21:00:00 NR 18.2543 124.841 main 263 263 __________P___ -1 18.2543 124.841 4 4 320
1920192N15127 1920 22 WP MM NOT_NAMED 1920-07-12 22:00:00 NR 18.3000 124.800 main 263 253 __________O___ -1 18.3000 124.800 4 3 318
1920192N15127 1920 22 WP MM NOT_NAMED 1920-07-13 00:00:00 NR 18.3675 124.733 main 253 242 __________P___ -1 18.3675 124.733 4 3 315
1920192N15127 1920 22 WP MM NOT_NAMED 1920-07-13 03:00:00 NR 18.4560 124.638 main 242 232 __________P___ -1 18.4560 124.638 4 3 315
1920192N15127 1920 22 WP MM NOT_NAMED 1920-07-13 06:00:00 NR 18.5458 124.543 main 232 222 __________P___ -1 18.5458 124.543 4 3 317
1920192N15127 1920 22 WP MM NOT_NAMED 1920-07-13 09:00:00 NR 18.6557 124.439 main 223 223 __________P___ -1 18.6557 124.439 4 3 319
1920192N15127 1920 22 WP MM NOT_NAMED 1920-07-13 10:00:00 NR 18.7000 124.400 main 223 215 __________O___ -1 18.7000 124.400 4 4 317
1920192N15127 1920 22 WP MM NOT_NAMED 1920-07-13 12:00:00 NR 18.7922 124.304 main 215 201 __________P___ -1 18.7922 124.304 4 4 317
1920192N15127 1920 22 WP MM NOT_NAMED 1920-07-13 15:00:00 NR 18.9553 124.146 main 201 195 __________P___ -1 18.9553 124.146 4 5 321
1920192N15127 1920 22 WP MM NOT_NAMED 1920-07-13 18:00:00 NR 19.1564 123.987 main 200 190 __________P___ -1 19.1564 123.987 4 5 327
1920192N15127 1920 22 WP MM NOT_NAMED 1920-07-13 21:00:00 NR 19.4050 123.842 main 193 193 __________P___ -1 19.4050 123.842 4 6 333
1920192N15127 1920 22 WP MM NOT_NAMED 1920-07-13 22:00:00 NR 19.5000 123.800 main 200 199 __________O___ -1 19.5000 123.800 4 6 340
1920192N15127 1920 22 WP MM NOT_NAMED 1920-07-14 00:00:00 NR 19.7074 123.725 main 206 206 __________P___ -1 19.7074 123.725 4 7 344
1920192N15127 1920 22 WP MM NOT_NAMED 1920-07-14 03:00:00 NR 20.0626 123.631 main 234 234 __________P___ -1 20.0626 123.631 4 8 348
1920192N15127 1920 22 WP MM NOT_NAMED 1920-07-14 06:00:00 NR 20.4541 123.560 main 271 266 __________P___ -1 20.4541 123.560 4 8 352
1920192N15127 1920 22 WP MM NOT_NAMED 1920-07-14 09:00:00 NR 20.8630 123.511 main 291 287 __________P___ -1 20.8630 123.511 4 8 355
1920192N15127 1920 22 WP MM NOT_NAMED 1920-07-14 10:00:00 NR 21.0000 123.500 main 287 279 __________O___ -1 21.0000 123.500 4 8 0
1920192N15127 1920 22 WP MM NOT_NAMED 1920-07-14 12:00:00 NR 21.2452 123.493 main 279 270 __________P___ -1 21.2452 123.493 4 7 2
1920192N15127 1920 22 WP MM NOT_NAMED 1920-07-14 15:00:00 NR 21.6190 123.502 main 270 248 __________P___ -1 21.6190 123.502 4 8 0
1920192N15127 1920 22 WP MM NOT_NAMED 1920-07-14 18:00:00 NR 22.0138 123.514 main 248 229 __________P___ -1 22.0138 123.514 4 8 0
1920192N15127 1920 22 WP MM NOT_NAMED 1920-07-14 21:00:00 NR 22.4453 123.509 main 229 222 __________P___ -1 22.4453 123.509 4 9 357
1920192N15127 1920 22 WP MM NOT_NAMED 1920-07-14 22:00:00 NR 22.6000 123.500 main 222 216 __________O___ -1 22.6000 123.500 4 10 356
1920192N15127 1920 22 WP MM NOT_NAMED 1920-07-15 00:00:00 NR 22.9428 123.469 main 216 188 __________P___ -1 22.9428 123.469 4 11 354
1920192N15127 1920 22 WP MM NOT_NAMED 1920-07-15 03:00:00 NR 23.4952 123.398 main 188 148 __________P___ -1 23.4952 123.398 4 11 352
1920192N15127 1920 22 WP MM NOT_NAMED 1920-07-15 06:00:00 NR 24.0655 123.294 main 148 129 __________P___ -1 24.0655 123.294 4 12 349
1920192N15127 1920 22 WP MM NOT_NAMED 1920-07-15 09:00:00 NR 24.6226 123.155 main 129 113 __________P___ -1 24.6226 123.155 4 11 346
1920192N15127 1920 22 WP MM NOT_NAMED 1920-07-15 10:00:00 NR 24.8000 123.100 main 113 100 __________O___ -1 24.8000 123.100 4 11 343
1920192N15127 1920 22 WP MM NOT_NAMED 1920-07-15 12:00:00 NR 25.1491 122.974 main 101 93 __________P___ -1 25.1491 122.974 4 11 340
1920192N15127 1920 22 WP MM NOT_NAMED 1920-07-15 15:00:00 NR 25.6482 122.753 main 104 105 __________P___ -1 25.6482 122.753 4 10 336
1920192N15127 1920 22 WP MM NOT_NAMED 1920-07-15 18:00:00 NR 26.1009 122.512 main 132 132 __________P___ -1 26.1009 122.512 4 9 333
1920192N15127 1920 22 WP MM NOT_NAMED 1920-07-15 21:00:00 NR 26.4885 122.275 main 161 157 __________P___ -1 26.4885 122.275 4 9 331
1920192N15127 1920 22 WP MM NOT_NAMED 1920-07-15 22:00:00 NR 26.6000 122.200 main 167 158 __________O___ -1 26.6000 122.200 4 7 331
1920192N15127 1920 22 WP MM NOT_NAMED 1920-07-16 00:00:00 NR 26.8060 122.071 main 158 126 __________P___ -1 26.8060 122.071 4 6 329
1920192N15127 1920 22 WP MM NOT_NAMED 1920-07-16 03:00:00 NR 27.0524 121.892 main 126 104 __________P___ -1 27.0524 121.892 4 5 324
1920192N15127 1920 22 WP MM NOT_NAMED 1920-07-16 06:00:00 NR 27.2348 121.722 main 104 83 __________P___ -1 27.2348 121.722 4 4 316
1920192N15127 1920 22 WP MM NOT_NAMED 1920-07-16 09:00:00 NR 27.3657 121.556 main 83 79 __________P___ -1 27.3657 121.556 4 4 310
1920192N15127 1920 22 WP MM NOT_NAMED 1920-07-16 10:00:00 NR 27.4000 121.500 main 79 66 __________O___ -1 27.4000 121.500 4 4 308
1920192N15127 1920 22 WP MM NOT_NAMED 1920-07-16 12:00:00 NR 27.4726 121.399 main 66 49 __________P___ -1 27.4726 121.399 4 3 303
1920192N15127 1920 22 WP MM NOT_NAMED 1920-07-16 15:00:00 NR 27.5439 121.248 main 49 37 __________P___ -1 27.5439 121.248 4 3 291
1920192N15127 1920 22 WP MM NOT_NAMED 1920-07-16 18:00:00 NR 27.5812 121.080 main 37 19 __________P___ -1 27.5812 121.080 4 3 279
1920192N15127 1920 22 WP MM NOT_NAMED 1920-07-16 21:00:00 NR 27.5972 120.878 main 19 9 __________P___ -1 27.5972 120.878 4 4 274
1920192N15127 1920 22 WP MM NOT_NAMED 1920-07-16 22:00:00 NR 27.6000 120.800 main 9 0 __________O___ -1 27.6000 120.800 2 5 276
1920192N15127 1920 22 WP MM NOT_NAMED 1920-07-17 00:00:00 NR 27.6219 120.623 main 0 0 __________P___ -1 27.6219 120.623 2 5 276
1920192N15127 1920 22 WP MM NOT_NAMED 1920-07-17 03:00:00 NR 27.6424 120.320 main 0 0 __________P___ -1 27.6424 120.320 2 6 272
1920192N15127 1920 22 WP MM NOT_NAMED 1920-07-17 06:00:00 NR 27.6424 119.982 main 0 0 __________P___ -1 27.6424 119.982 2 6 268
1920192N15127 1920 22 WP MM NOT_NAMED 1920-07-17 09:00:00 NR 27.6158 119.623 main 0 0 __________P___ -1 27.6158 119.623 2 6 264
1920192N15127 1920 22 WP MM NOT_NAMED 1920-07-17 10:00:00 NR 27.6000 119.500 main 0 0 __________O___ -1 27.6000 119.500 2 7 260
1920192N15127 1920 22 WP MM NOT_NAMED 1920-07-17 12:00:00 NR 27.5562 119.256 main 0 0 __________P___ -1 27.5562 119.256 2 7 256
1920192N15127 1920 22 WP MM NOT_NAMED 1920-07-17 15:00:00 NR 27.4653 118.877 main 0 0 __________P___ -1 27.4653 118.877 2 7 253
1920192N15127 1920 22 WP MM NOT_NAMED 1920-07-17 18:00:00 NR 27.3551 118.495 main 0 0 __________P___ -1 27.3551 118.495 2 7 251
1920192N15127 1920 22 WP MM NOT_NAMED 1920-07-17 21:00:00 NR 27.2383 118.121 main 0 0 __________P___ -1 27.2383 118.121 2 7 251
1920192N15127 1920 22 WP MM NOT_NAMED 1920-07-17 22:00:00 NR 27.2000 118.000 main 0 0 __________O___ -1 27.2000 118.000 2 7 251
1920192N15127 1920 22 WP MM NOT_NAMED 1920-07-18 00:00:00 NR 27.1331 117.767 main 0 0 __________P___ -1 27.1331 117.767 2 6 252
1920192N15127 1920 22 WP MM NOT_NAMED 1920-07-18 03:00:00 NR 27.0330 117.429 main 0 0 __________P___ -1 27.0330 117.429 2 6 251
1920192N15127 1920 22 WP MM NOT_NAMED 1920-07-18 06:00:00 NR 26.9331 117.107 main 0 0 __________P___ -1 26.9331 117.107 2 6 250
1920192N15127 1920 22 WP MM NOT_NAMED 1920-07-18 09:00:00 NR 26.8333 116.799 main 0 0 __________P___ -1 26.8333 116.799 2 6 250
1920192N15127 1920 22 WP MM NOT_NAMED 1920-07-18 10:00:00 NR 26.8000 116.700 main 0 0 __________O___ -1 26.8000 116.700 2 5 251
1920192N15127 1920 22 WP MM NOT_NAMED 1920-07-18 12:00:00 NR 26.7435 116.511 main 0 0 __________P___ -1 26.7435 116.511 2 5 251
1920192N15127 1920 22 WP MM NOT_NAMED 1920-07-18 15:00:00 NR 26.6592 116.240 main 0 0 __________P___ -1 26.6592 116.240 2 5 250
1920192N15127 1920 22 WP MM NOT_NAMED 1920-07-18 18:00:00 NR 26.5644 115.972 main 0 0 __________P___ -1 26.5644 115.972 2 5 246
1920192N15127 1920 22 WP MM NOT_NAMED 1920-07-18 21:00:00 NR 26.4466 115.696 main 0 0 __________P___ -1 26.4466 115.696 2 6 244
1920192N15127 1920 22 WP MM NOT_NAMED 1920-07-18 22:00:00 NR 26.4000 115.600 main 0 0 __________O___ -1 26.4000 115.600 2 6 239
1920192N15127 1920 22 WP MM NOT_NAMED 1920-07-19 00:00:00 NR 26.2869 115.392 main 0 0 __________P___ -1 26.2869 115.392 2 7 237
1920192N15127 1920 22 WP MM NOT_NAMED 1920-07-19 03:00:00 NR 26.0919 115.067 main 0 0 __________P___ -1 26.0919 115.067 2 7 235
1920192N15127 1920 22 WP MM NOT_NAMED 1920-07-19 06:00:00 NR 25.8805 114.736 main 0 0 __________P___ -1 25.8805 114.736 2 7 234
1920192N15127 1920 22 WP MM NOT_NAMED 1920-07-19 09:00:00 NR 25.6682 114.407 main 0 0 __________P___ -1 25.6682 114.407 2 7 234
1920192N15127 1920 22 WP MM NOT_NAMED 1920-07-19 10:00:00 NR 25.6000 114.300 main 0 0 __________O___ -1 25.6000 114.300 2 7 236
1920192N15127 1920 22 WP MM NOT_NAMED 1920-07-19 12:00:00 NR 25.4826 114.100 main 0 0 __________P___ -1 25.4826 114.100 2 6 237
1920192N15127 1920 22 WP MM NOT_NAMED 1920-07-19 15:00:00 NR 25.3131 113.806 main 0 0 __________P___ -1 25.3131 113.806 2 6 238
1920192N15127 1920 22 WP MM NOT_NAMED 1920-07-19 18:00:00 NR 25.1432 113.511 main 0 0 __________P___ -1 25.1432 113.511 2 6 237
1920192N15127 1920 22 WP MM NOT_NAMED 1920-07-19 21:00:00 NR 24.9636 113.206 main 0 0 __________P___ -1 24.9636 113.206 2 7 237
1920192N15127 1920 22 WP MM NOT_NAMED 1920-07-19 22:00:00 NR 24.9000 113.100 main 0 0 __________O___ -1 24.9000 113.100 2 7 236
1920192N15127 1920 22 WP MM NOT_NAMED 1920-07-20 00:00:00 NR 24.7589 112.870 main 0 0 __________P___ -1 24.7589 112.870 2 8 236
1920192N15127 1920 22 WP MM NOT_NAMED 1920-07-20 03:00:00 NR 24.5345 112.513 main 0 0 __________P___ -1 24.5345 112.513 2 8 235
1920192N15127 1920 22 WP MM NOT_NAMED 1920-07-20 06:00:00 NR 24.3031 112.154 main 0 0 __________P___ -1 24.3031 112.154 2 8 234
1920192N15127 1920 22 WP MM NOT_NAMED 1920-07-20 09:00:00 NR 24.0741 111.809 main 0 0 __________P___ -1 24.0741 111.809 2 8 234
1920192N15127 1920 22 WP MM NOT_NAMED 1920-07-20 10:00:00 NR 24.0000 111.700 main 0 0 __________O___ -1 24.0000 111.700 2 7 234
1920192N15127 1920 22 WP MM NOT_NAMED 1920-07-20 12:00:00 NR 23.8789 111.511 main 0 0 __________P___ -1 23.8789 111.511 2 6 235
1920192N15127 1920 22 WP MM NOT_NAMED 1920-07-20 15:00:00 NR 23.7042 111.246 main 0 0 __________P___ -1 23.7042 111.246 2 6 233
1920192N15127 1920 22 WP MM NOT_NAMED 1920-07-20 18:00:00 NR 23.5158 110.984 main 0 0 __________P___ -1 23.5158 110.984 2 7 230
1920192N15127 1920 22 WP MM NOT_NAMED 1920-07-20 21:00:00 NR 23.2887 110.702 main 0 0 __________P___ -1 23.2887 110.702 2 7 228
1920192N15127 1920 22 WP MM NOT_NAMED 1920-07-20 22:00:00 NR 23.2000 110.600 main 0 0 __________O___ -1 23.2000 110.600 2 9 225
1920192N15127 1920 22 WP MM NOT_NAMED 1920-07-21 00:00:00 NR 22.9873 110.375 main 0 0 __________P___ -1 22.9873 110.375 2 10 223
1920192N15127 1920 22 WP MM NOT_NAMED 1920-07-21 03:00:00 NR 22.6241 110.013 main 0 0 __________P___ -1 22.6241 110.013 2 10 222
1920192N15127 1920 22 WP MM NOT_NAMED 1920-07-21 06:00:00 NR 22.2300 109.629 main 0 0 __________P___ -1 22.2300 109.629 2 11 222
1920192N15127 1920 22 WP MM NOT_NAMED 1920-07-21 09:00:00 NR 21.8302 109.233 main 0 0 __________P___ -1 21.8302 109.233 2 11 223
1920192N15127 1920 22 WP MM NOT_NAMED 1920-07-21 10:00:00 NR 21.7000 109.100 main 0 0 __________O___ -1 21.7000 109.100 2 11 225
1920192N15127 1920 22 WP MM NOT_NAMED 1920-07-21 12:00:00 NR 21.4377 108.805 main 22 22 __________P___ -1 21.4377 108.805 2 11 227
1920192N15127 1920 22 WP MM NOT_NAMED 1920-07-21 15:00:00 NR 21.0499 108.354 main 59 56 __________P___ -1 21.0499 108.354 2 11 227
1920192N15127 1920 22 WP MM NOT_NAMED 1920-07-21 18:00:00 NR 20.6908 107.935 main 61 61 __________P___ -1 20.6908 107.935 2 10 227
1920192N15127 1920 22 WP MM NOT_NAMED 1920-07-21 21:00:00 NR 20.3854 107.591 main 69 69 __________P___ -1 20.3854 107.591 2 9 226
1920192N15127 1920 22 WP MM NOT_NAMED 1920-07-21 22:00:00 NR 20.3000 107.500 main 74 74 __________O___ -1 20.3000 107.500 2 6 223
1920192N15127 1920 22 WP MM NOT_NAMED 1920-07-22 00:00:00 NR 20.1649 107.366 main 81 71 __________P___ -1 20.1649 107.366 2 4 220
1920192N15127 1920 22 WP MM NOT_NAMED 1920-07-22 03:00:00 NR 20.0193 107.246 main 71 71 __________P___ -1 20.0193 107.246 2 3 212
1920192N15127 1920 22 WP MM NOT_NAMED 1920-07-22 06:00:00 NR 19.9173 107.199 main 76 76 __________P___ -1 19.9173 107.199 2 2 193
1920192N15127 1920 22 WP MM NOT_NAMED 1920-07-22 09:00:00 NR 19.8305 107.196 main 83 83 __________P___ -1 19.8305 107.196 2 2 171
1920192N15127 1920 22 WP MM NOT_NAMED 1920-07-22 10:00:00 NR 19.8000 107.200 main 83 83 __________O___ -1 19.8000 107.200 2 2 0
1920192N15127 1920 22 WP MM NOT_NAMED 1920-07-22 12:00:00 NR 19.7114 107.189 main 91 91 __________P___ -1 19.7114 107.189 2 3 0
1920192N15127 1920 22 WP MM NOT_NAMED 1920-07-22 15:00:00 NR 19.5784 107.197 main 99 99 __________P___ -1 19.5784 107.197 2 3 173
1920192N15127 1920 22 WP MM NOT_NAMED 1920-07-22 18:00:00 NR 19.4508 107.229 main 107 115 __________P___ -1 19.4508 107.229 2 3 162
1920192N15127 1920 22 WP MM NOT_NAMED 1920-07-22 21:00:00 NR 19.3350 107.280 main 130 130 __________P___ -1 19.3350 107.280 2 2 154
1920192N15127 1920 22 WP MM NOT_NAMED 1920-07-22 22:00:00 NR 19.3000 107.300 main 130 130 __________O___ -1 19.3000 107.300 2 2 149
1920192N15127 1920 22 WP MM NOT_NAMED 1920-07-23 00:00:00 NR 19.2333 107.333 main 136 126 __________P___ -1 19.2333 107.333 2 2 151
1920192N15127 1920 22 WP MM NOT_NAMED 1920-07-23 03:00:00 NR 19.1458 107.396 main 127 117 __________P___ -1 19.1458 107.396 2 2 141
1920192N15127 1920 22 WP MM NOT_NAMED 1920-07-23 06:00:00 NR 19.0733 107.473 main 117 110 __________P___ -1 19.0733 107.473 2 2 129
1920192N15127 1920 22 WP MM NOT_NAMED 1920-07-23 09:00:00 NR 19.0158 107.566 main 110 110 __________P___ -1 19.0158 107.566 2 2 122
1920192N15127 1920 22 WP MM NOT_NAMED 1920-07-23 10:00:00 NR 19.0000 107.600 main 110 100 __________O___ -1 19.0000 107.600 2 2 112
1920192N15127 1920 22 WP MM NOT_NAMED 1920-07-23 12:00:00 NR 18.9732 107.673 main 100 90 __________P___ -1 18.9732 107.673 2 2 107
1920192N15127 1920 22 WP MM NOT_NAMED 1920-07-23 15:00:00 NR 18.9430 107.793 main 94 84 __________P___ -1 18.9430 107.793 2 2 102
1920192N15127 1920 22 WP MM NOT_NAMED 1920-07-23 18:00:00 NR 18.9216 107.921 main 84 63 __________P___ -1 18.9216 107.921 2 3 99
1920192N15127 1920 22 WP MM NOT_NAMED 1920-07-23 21:00:00 NR 18.9051 108.055 main 63 63 __________P___ -1 18.9051 108.055 2 3 97
1920192N15127 1920 22 WP MM NOT_NAMED 1920-07-23 22:00:00 NR 18.9000 108.100 main 63 __________O___ -1 18.9000 108.100 7 3 97

デジタル台風データ・検索

IBTrACS Databaseについて

本データベースは、米国NOAAが公開する1842年以降の世界の熱帯低気圧のベストトラックデータアーカイブInternational Best Track Archive for Climate Stewardship (IBTrACS)を、ウェブで閲覧しやすい形式に変換したものです。

最終更新日:2021-10-19